sensor_id;sensor_type;location;lat;lon;timestamp;pressure;altitude;pressure_sealevel;temperature;humidity
77153;BME280;66124;51.146;17.072;2023-02-23T00:00:39;100233.02;;;2.51;73.90
77153;BME280;66124;51.146;17.072;2023-02-23T00:03:16;100234.44;;;2.49;73.99
77153;BME280;66124;51.146;17.072;2023-02-23T00:05:45;100235.02;;;2.46;74.14
77153;BME280;66124;51.146;17.072;2023-02-23T00:08:13;100234.92;;;2.43;74.23
77153;BME280;66124;51.146;17.072;2023-02-23T00:10:41;100234.23;;;2.41;74.17
77153;BME280;66124;51.146;17.072;2023-02-23T00:18:36;100224.17;;;2.39;74.23
77153;BME280;66124;51.146;17.072;2023-02-23T00:21:06;100223.77;;;2.36;74.28
77153;BME280;66124;51.146;17.072;2023-02-23T00:23:35;100222.33;;;2.32;74.43
77153;BME280;66124;51.146;17.072;2023-02-23T00:26:05;100223.73;;;2.30;74.48
77153;BME280;66124;51.146;17.072;2023-02-23T00:28:34;100223.13;;;2.29;74.53
77153;BME280;66124;51.146;17.072;2023-02-23T00:31:05;100219.32;;;2.27;74.34
77153;BME280;66124;51.146;17.072;2023-02-23T00:33:34;100217.23;;;2.23;74.50
77153;BME280;66124;51.146;17.072;2023-02-23T00:36:10;100216.58;;;2.22;74.40
77153;BME280;66124;51.146;17.072;2023-02-23T00:38:40;100213.05;;;2.21;74.69
77153;BME280;66124;51.146;17.072;2023-02-23T00:41:12;100213.33;;;2.18;74.82
77153;BME280;66124;51.146;17.072;2023-02-23T00:43:42;100212.05;;;2.14;74.82
77153;BME280;66124;51.146;17.072;2023-02-23T00:46:11;100209.27;;;2.12;74.85
77153;BME280;66124;51.146;17.072;2023-02-23T00:48:41;100207.84;;;2.10;74.87
77153;BME280;66124;51.146;17.072;2023-02-23T00:51:11;100210.54;;;2.09;74.59
77153;BME280;66124;51.146;17.072;2023-02-23T00:53:41;100207.98;;;2.07;74.80
77153;BME280;66124;51.146;17.072;2023-02-23T00:56:13;100209.54;;;2.07;74.64
77153;BME280;66124;51.146;17.072;2023-02-23T00:58:42;100210.50;;;2.05;74.74
77153;BME280;66124;51.146;17.072;2023-02-23T01:01:14;100210.25;;;2.04;75.09
77153;BME280;66124;51.146;17.072;2023-02-23T01:03:44;100209.95;;;2.02;74.80
77153;BME280;66124;51.146;17.072;2023-02-23T01:06:15;100205.21;;;2.00;74.83
77153;BME280;66124;51.146;17.072;2023-02-23T01:08:46;100201.77;;;1.98;75.12
77153;BME280;66124;51.146;17.072;2023-02-23T01:11:18;100199.66;;;1.96;74.81
77153;BME280;66124;51.146;17.072;2023-02-23T01:13:52;100202.38;;;1.95;75.01
77153;BME280;66124;51.146;17.072;2023-02-23T01:16:24;100202.19;;;1.93;75.05
77153;BME280;66124;51.146;17.072;2023-02-23T01:18:54;100199.78;;;1.91;75.17
77153;BME280;66124;51.146;17.072;2023-02-23T01:21:26;100198.86;;;1.89;74.96
77153;BME280;66124;51.146;17.072;2023-02-23T01:23:56;100204.34;;;1.88;75.27
77153;BME280;66124;51.146;17.072;2023-02-23T01:26:27;100204.17;;;1.86;75.12
77153;BME280;66124;51.146;17.072;2023-02-23T01:28:59;100201.80;;;1.83;75.25
77153;BME280;66124;51.146;17.072;2023-02-23T01:31:28;100199.33;;;1.79;75.33
77153;BME280;66124;51.146;17.072;2023-02-23T01:39:20;100192.88;;;1.77;75.11
77153;BME280;66124;51.146;17.072;2023-02-23T01:41:49;100193.25;;;1.73;75.40
77153;BME280;66124;51.146;17.072;2023-02-23T01:47:23;100189.23;;;1.69;75.53
77153;BME280;66124;51.146;17.072;2023-02-23T01:49:53;100187.77;;;1.68;75.51
77153;BME280;66124;51.146;17.072;2023-02-23T01:52:22;100186.80;;;1.67;75.45
77153;BME280;66124;51.146;17.072;2023-02-23T01:54:53;100184.05;;;1.65;75.32
77153;BME280;66124;51.146;17.072;2023-02-23T01:57:24;100178.23;;;1.64;75.39
77153;BME280;66124;51.146;17.072;2023-02-23T01:59:53;100179.59;;;1.62;75.51
77153;BME280;66124;51.146;17.072;2023-02-23T02:02:27;100178.12;;;1.61;75.58
77153;BME280;66124;51.146;17.072;2023-02-23T02:04:57;100175.98;;;1.60;75.51
77153;BME280;66124;51.146;17.072;2023-02-23T02:07:29;100174.02;;;1.58;75.45
77153;BME280;66124;51.146;17.072;2023-02-23T02:09:59;100169.48;;;1.57;75.60
77153;BME280;66124;51.146;17.072;2023-02-23T02:12:28;100164.92;;;1.53;75.76
77153;BME280;66124;51.146;17.072;2023-02-23T02:14:58;100168.88;;;1.54;75.65
77153;BME280;66124;51.146;17.072;2023-02-23T02:17:32;100164.77;;;1.51;75.79
77153;BME280;66124;51.146;17.072;2023-02-23T02:20:23;100165.41;;;1.49;75.84
77153;BME280;66124;51.146;17.072;2023-02-23T02:23:17;100163.17;;;1.47;75.69
77153;BME280;66124;51.146;17.072;2023-02-23T02:26:05;100159.88;;;1.45;75.88
77153;BME280;66124;51.146;17.072;2023-02-23T02:31:59;100153.31;;;1.42;75.82
77153;BME280;66124;51.146;17.072;2023-02-23T02:34:56;100154.90;;;1.42;75.83
77153;BME280;66124;51.146;17.072;2023-02-23T02:40:43;100153.38;;;1.39;75.93
77153;BME280;66124;51.146;17.072;2023-02-23T02:43:21;100151.90;;;1.38;75.94
77153;BME280;66124;51.146;17.072;2023-02-23T02:45:55;100152.69;;;1.37;76.05
77153;BME280;66124;51.146;17.072;2023-02-23T02:48:38;100152.60;;;1.36;76.18
77153;BME280;66124;51.146;17.072;2023-02-23T02:51:12;100156.51;;;1.35;76.07
77153;BME280;66124;51.146;17.072;2023-02-23T03:02:32;100151.69;;;1.32;76.20
77153;BME280;66124;51.146;17.072;2023-02-23T03:05:06;100148.52;;;1.31;76.29
77153;BME280;66124;51.146;17.072;2023-02-23T03:07:42;100150.21;;;1.31;76.44
77153;BME280;66124;51.146;17.072;2023-02-23T03:10:17;100147.59;;;1.32;76.35
77153;BME280;66124;51.146;17.072;2023-02-23T03:12:59;100148.48;;;1.31;76.32
77153;BME280;66124;51.146;17.072;2023-02-23T03:15:40;100149.81;;;1.32;76.20
77153;BME280;66124;51.146;17.072;2023-02-23T03:18:26;100151.95;;;1.31;76.30
77153;BME280;66124;51.146;17.072;2023-02-23T03:21:06;100148.44;;;1.30;76.39
77153;BME280;66124;51.146;17.072;2023-02-23T03:23:39;100146.93;;;1.29;76.49
77153;BME280;66124;51.146;17.072;2023-02-23T03:26:12;100145.41;;;1.27;76.58
77153;BME280;66124;51.146;17.072;2023-02-23T03:28:49;100144.73;;;1.26;76.55
77153;BME280;66124;51.146;17.072;2023-02-23T03:31:26;100146.53;;;1.28;76.59
77153;BME280;66124;51.146;17.072;2023-02-23T03:34:02;100142.02;;;1.30;76.39
77153;BME280;66124;51.146;17.072;2023-02-23T03:36:38;100144.95;;;1.30;76.51
77153;BME280;66124;51.146;17.072;2023-02-23T03:39:16;100143.05;;;1.30;76.51
77153;BME280;66124;51.146;17.072;2023-02-23T03:41:47;100138.08;;;1.29;76.59
77153;BME280;66124;51.146;17.072;2023-02-23T03:44:23;100138.55;;;1.30;76.43
77153;BME280;66124;51.146;17.072;2023-02-23T03:46:56;100138.20;;;1.30;76.54
77153;BME280;66124;51.146;17.072;2023-02-23T03:49:28;100131.52;;;1.29;76.75
77153;BME280;66124;51.146;17.072;2023-02-23T03:52:04;100132.82;;;1.28;76.58
77153;BME280;66124;51.146;17.072;2023-02-23T03:54:38;100133.55;;;1.28;76.83
77153;BME280;66124;51.146;17.072;2023-02-23T03:57:10;100136.23;;;1.27;76.75
77153;BME280;66124;51.146;17.072;2023-02-23T03:59:45;100135.46;;;1.27;77.08
77153;BME280;66124;51.146;17.072;2023-02-23T04:02:17;100138.61;;;1.29;77.12
77153;BME280;66124;51.146;17.072;2023-02-23T04:04:48;100136.34;;;1.30;77.10
77153;BME280;66124;51.146;17.072;2023-02-23T04:07:19;100136.87;;;1.32;77.19
77153;BME280;66124;51.146;17.072;2023-02-23T04:09:49;100130.09;;;1.32;77.18
77153;BME280;66124;51.146;17.072;2023-02-23T04:12:19;100138.18;;;1.32;77.05
77153;BME280;66124;51.146;17.072;2023-02-23T04:14:50;100133.46;;;1.33;77.01
77153;BME280;66124;51.146;17.072;2023-02-23T04:22:31;100130.41;;;1.36;77.13
77153;BME280;66124;51.146;17.072;2023-02-23T04:25:00;100132.91;;;1.35;77.37
77153;BME280;66124;51.146;17.072;2023-02-23T04:27:30;100134.11;;;1.35;77.25
77153;BME280;66124;51.146;17.072;2023-02-23T04:29:59;100133.10;;;1.35;77.39
77153;BME280;66124;51.146;17.072;2023-02-23T04:32:29;100132.27;;;1.35;77.22
77153;BME280;66124;51.146;17.072;2023-02-23T04:34:59;100132.00;;;1.34;77.47
77153;BME280;66124;51.146;17.072;2023-02-23T04:37:29;100130.14;;;1.33;77.44
77153;BME280;66124;51.146;17.072;2023-02-23T04:39:58;100128.88;;;1.32;77.58
77153;BME280;66124;51.146;17.072;2023-02-23T04:42:28;100129.45;;;1.31;77.55
77153;BME280;66124;51.146;17.072;2023-02-23T04:44:57;100128.12;;;1.31;77.46
77153;BME280;66124;51.146;17.072;2023-02-23T04:47:26;100126.96;;;1.30;77.56
77153;BME280;66124;51.146;17.072;2023-02-23T04:49:55;100123.05;;;1.29;77.54
77153;BME280;66124;51.146;17.072;2023-02-23T04:52:25;100123.80;;;1.28;77.67
77153;BME280;66124;51.146;17.072;2023-02-23T04:54:54;100120.71;;;1.26;77.72
77153;BME280;66124;51.146;17.072;2023-02-23T04:57:23;100122.39;;;1.24;78.02
77153;BME280;66124;51.146;17.072;2023-02-23T04:59:53;100121.30;;;1.23;77.86
77153;BME280;66124;51.146;17.072;2023-02-23T05:02:22;100123.77;;;1.22;77.76
77153;BME280;66124;51.146;17.072;2023-02-23T05:04:51;100118.64;;;1.24;77.93
77153;BME280;66124;51.146;17.072;2023-02-23T05:07:21;100119.98;;;1.24;77.97
77153;BME280;66124;51.146;17.072;2023-02-23T05:09:50;100120.25;;;1.25;77.97
77153;BME280;66124;51.146;17.072;2023-02-23T05:12:19;100110.24;;;1.18;78.02
77153;BME280;66124;51.146;17.072;2023-02-23T05:14:49;100119.11;;;1.24;77.99
77153;BME280;66124;51.146;17.072;2023-02-23T05:17:18;100122.51;;;1.25;77.96
77153;BME280;66124;51.146;17.072;2023-02-23T05:19:48;100118.13;;;1.25;78.02
77153;BME280;66124;51.146;17.072;2023-02-23T05:22:17;100117.20;;;1.27;77.92
77153;BME280;66124;51.146;17.072;2023-02-23T05:24:46;100116.31;;;1.27;78.03
77153;BME280;66124;51.146;17.072;2023-02-23T05:27:16;100112.38;;;1.26;78.03
77153;BME280;66124;51.146;17.072;2023-02-23T05:29:45;100113.35;;;1.27;77.98
77153;BME280;66124;51.146;17.072;2023-02-23T05:32:14;100109.45;;;1.26;77.94
77153;BME280;66124;51.146;17.072;2023-02-23T05:34:42;100115.60;;;1.25;78.02
77153;BME280;66124;51.146;17.072;2023-02-23T05:42:18;100118.54;;;1.25;77.98
77153;BME280;66124;51.146;17.072;2023-02-23T05:44:48;100119.46;;;1.22;78.01
77153;BME280;66124;51.146;17.072;2023-02-23T05:47:17;100119.02;;;1.21;78.12
77153;BME280;66124;51.146;17.072;2023-02-23T05:49:46;100115.52;;;1.20;78.16
77153;BME280;66124;51.146;17.072;2023-02-23T05:52:15;100116.37;;;1.20;78.08
77153;BME280;66124;51.146;17.072;2023-02-23T05:54:47;100117.43;;;1.19;78.29
77153;BME280;66124;51.146;17.072;2023-02-23T05:57:16;100118.59;;;1.18;78.15
77153;BME280;66124;51.146;17.072;2023-02-23T05:59:45;100119.48;;;1.17;78.13
77153;BME280;66124;51.146;17.072;2023-02-23T06:02:15;100120.02;;;1.17;78.22
77153;BME280;66124;51.146;17.072;2023-02-23T06:04:44;100115.99;;;1.18;78.17
77153;BME280;66124;51.146;17.072;2023-02-23T06:07:13;100116.91;;;1.17;78.38
77153;BME280;66124;51.146;17.072;2023-02-23T06:09:43;100114.54;;;1.17;78.22
77153;BME280;66124;51.146;17.072;2023-02-23T06:12:12;100119.77;;;1.16;78.38
77153;BME280;66124;51.146;17.072;2023-02-23T06:14:42;100119.04;;;1.17;78.32
77153;BME280;66124;51.146;17.072;2023-02-23T06:17:11;100119.65;;;1.18;78.22
77153;BME280;66124;51.146;17.072;2023-02-23T06:19:40;100119.02;;;1.19;78.41
77153;BME280;66124;51.146;17.072;2023-02-23T06:22:09;100121.70;;;1.20;78.48
77153;BME280;66124;51.146;17.072;2023-02-23T06:24:39;100121.20;;;1.22;78.37
77153;BME280;66124;51.146;17.072;2023-02-23T06:27:08;100121.15;;;1.23;78.44
77153;BME280;66124;51.146;17.072;2023-02-23T06:29:37;100119.80;;;1.24;78.56
77153;BME280;66124;51.146;17.072;2023-02-23T06:32:07;100119.83;;;1.26;78.50
77153;BME280;66124;51.146;17.072;2023-02-23T06:34:37;100122.29;;;1.30;78.42
77153;BME280;66124;51.146;17.072;2023-02-23T06:37:06;100125.08;;;1.34;78.48
77153;BME280;66124;51.146;17.072;2023-02-23T06:39:35;100120.33;;;1.37;78.50
77153;BME280;66124;51.146;17.072;2023-02-23T06:42:05;100123.34;;;1.40;78.26
77153;BME280;66124;51.146;17.072;2023-02-23T06:44:34;100121.86;;;1.44;78.14
77153;BME280;66124;51.146;17.072;2023-02-23T06:47:05;100123.84;;;1.49;78.56
77153;BME280;66124;51.146;17.072;2023-02-23T06:49:34;100123.16;;;1.53;78.31
77153;BME280;66124;51.146;17.072;2023-02-23T06:52:04;100122.21;;;1.57;78.20
77153;BME280;66124;51.146;17.072;2023-02-23T06:54:32;100122.31;;;1.59;78.34
77153;BME280;66124;51.146;17.072;2023-02-23T07:01:33;100119.23;;;1.69;78.40
77153;BME280;66124;51.146;17.072;2023-02-23T07:04:03;100125.61;;;1.72;78.30
77153;BME280;66124;51.146;17.072;2023-02-23T07:06:32;100120.17;;;1.77;78.01
77153;BME280;66124;51.146;17.072;2023-02-23T07:09:01;100121.05;;;1.81;78.18
77153;BME280;66124;51.146;17.072;2023-02-23T07:11:31;100121.19;;;1.85;78.19
77153;BME280;66124;51.146;17.072;2023-02-23T07:14:02;100121.04;;;1.91;77.95
77153;BME280;66124;51.146;17.072;2023-02-23T07:16:31;100121.98;;;1.96;78.03
77153;BME280;66124;51.146;17.072;2023-02-23T07:19:00;100122.55;;;2.02;77.99
77153;BME280;66124;51.146;17.072;2023-02-23T07:21:30;100123.54;;;2.07;77.79
77153;BME280;66124;51.146;17.072;2023-02-23T07:23:59;100121.48;;;2.13;78.11
77153;BME280;66124;51.146;17.072;2023-02-23T07:26:29;100118.87;;;2.17;77.74
77153;BME280;66124;51.146;17.072;2023-02-23T07:28:59;100114.47;;;2.24;77.77
77153;BME280;66124;51.146;17.072;2023-02-23T07:31:29;100108.64;;;2.31;77.60
77153;BME280;66124;51.146;17.072;2023-02-23T07:33:58;100108.49;;;2.39;77.70
77153;BME280;66124;51.146;17.072;2023-02-23T07:36:27;100109.38;;;2.45;77.36
77153;BME280;66124;51.146;17.072;2023-02-23T07:38:57;100108.14;;;2.49;77.29
77153;BME280;66124;51.146;17.072;2023-02-23T07:41:26;100103.77;;;2.53;77.35
77153;BME280;66124;51.146;17.072;2023-02-23T07:43:55;100104.66;;;2.59;77.13
77153;BME280;66124;51.146;17.072;2023-02-23T07:46:26;100101.48;;;2.65;77.17
77153;BME280;66124;51.146;17.072;2023-02-23T07:48:55;100099.69;;;2.72;76.89
77153;BME280;66124;51.146;17.072;2023-02-23T07:51:25;100097.33;;;2.79;76.77
77153;BME280;66124;51.146;17.072;2023-02-23T07:53:54;100101.15;;;2.85;76.61
77153;BME280;66124;51.146;17.072;2023-02-23T07:56:23;100098.27;;;2.90;76.82
77153;BME280;66124;51.146;17.072;2023-02-23T07:58:53;100095.52;;;2.98;76.66
77153;BME280;66124;51.146;17.072;2023-02-23T08:01:22;100096.35;;;3.08;76.66
77153;BME280;66124;51.146;17.072;2023-02-23T08:03:51;100098.53;;;3.19;76.41
77153;BME280;66124;51.146;17.072;2023-02-23T08:06:21;100094.02;;;3.30;76.04
77153;BME280;66124;51.146;17.072;2023-02-23T08:08:50;100093.14;;;3.42;76.01
77153;BME280;66124;51.146;17.072;2023-02-23T08:11:18;100091.23;;;3.51;75.64
77153;BME280;66124;51.146;17.072;2023-02-23T08:13:46;100093.11;;;3.60;75.60
77153;BME280;66124;51.146;17.072;2023-02-23T08:22:02;100089.02;;;3.89;75.00
77153;BME280;66124;51.146;17.072;2023-02-23T08:24:32;100092.31;;;3.93;74.82
77153;BME280;66124;51.146;17.072;2023-02-23T08:27:02;100088.84;;;3.98;74.63
77153;BME280;66124;51.146;17.072;2023-02-23T08:29:31;100088.15;;;4.05;74.76
77153;BME280;66124;51.146;17.072;2023-02-23T08:32:02;100085.41;;;4.16;74.43
77153;BME280;66124;51.146;17.072;2023-02-23T08:34:35;100085.58;;;4.25;74.20
77153;BME280;66124;51.146;17.072;2023-02-23T08:37:04;100082.52;;;4.31;73.88
77153;BME280;66124;51.146;17.072;2023-02-23T08:39:34;100085.41;;;4.33;73.96
77153;BME280;66124;51.146;17.072;2023-02-23T08:42:04;100086.55;;;4.38;73.93
77153;BME280;66124;51.146;17.072;2023-02-23T08:44:34;100081.77;;;4.40;74.02
77153;BME280;66124;51.146;17.072;2023-02-23T08:47:03;100081.48;;;4.44;74.22
77153;BME280;66124;51.146;17.072;2023-02-23T08:49:32;100080.85;;;4.48;73.96
77153;BME280;66124;51.146;17.072;2023-02-23T08:52:02;100080.55;;;4.55;73.99
77153;BME280;66124;51.146;17.072;2023-02-23T08:54:31;100081.91;;;4.62;73.54
77153;BME280;66124;51.146;17.072;2023-02-23T08:57:00;100079.75;;;4.70;73.60
77153;BME280;66124;51.146;17.072;2023-02-23T08:59:30;100081.78;;;4.78;73.46
77153;BME280;66124;51.146;17.072;2023-02-23T09:01:59;100081.63;;;4.85;73.01
77153;BME280;66124;51.146;17.072;2023-02-23T09:04:31;100080.88;;;4.91;72.94
77153;BME280;66124;51.146;17.072;2023-02-23T09:07:01;100080.11;;;4.99;73.03
77153;BME280;66124;51.146;17.072;2023-02-23T09:09:30;100080.46;;;5.12;72.94
77153;BME280;66124;51.146;17.072;2023-02-23T09:11:59;100075.05;;;5.22;72.48
77153;BME280;66124;51.146;17.072;2023-02-23T09:14:29;100076.05;;;5.33;72.66
77153;BME280;66124;51.146;17.072;2023-02-23T09:16:58;100075.52;;;5.42;72.35
77153;BME280;66124;51.146;17.072;2023-02-23T09:19:28;100074.72;;;5.52;72.46
77153;BME280;66124;51.146;17.072;2023-02-23T09:21:57;100069.17;;;5.67;72.31
77153;BME280;66124;51.146;17.072;2023-02-23T09:24:26;100067.81;;;5.83;71.97
77153;BME280;66124;51.146;17.072;2023-02-23T09:26:56;100065.63;;;5.93;71.56
77153;BME280;66124;51.146;17.072;2023-02-23T09:29:25;100062.18;;;5.99;71.22
77153;BME280;66124;51.146;17.072;2023-02-23T09:31:53;100059.14;;;6.10;71.28
77153;BME280;66124;51.146;17.072;2023-02-23T09:37:26;100057.25;;;6.50;71.10
77153;BME280;66124;51.146;17.072;2023-02-23T09:39:56;100058.22;;;6.66;70.69
77153;BME280;66124;51.146;17.072;2023-02-23T09:42:36;100054.80;;;6.80;70.73
77153;BME280;66124;51.146;17.072;2023-02-23T09:45:15;100050.97;;;6.95;70.25
77153;BME280;66124;51.146;17.072;2023-02-23T09:48:01;100042.70;;;7.05;70.08
77153;BME280;66124;51.146;17.072;2023-02-23T09:50:35;100045.68;;;7.17;69.63
77153;BME280;66124;51.146;17.072;2023-02-23T09:53:17;100045.66;;;7.24;69.35
77153;BME280;66124;51.146;17.072;2023-02-23T09:55:48;100043.52;;;7.29;69.34
77153;BME280;66124;51.146;17.072;2023-02-23T09:58:22;100043.90;;;7.35;68.91
77153;BME280;66124;51.146;17.072;2023-02-23T10:01:04;100039.48;;;7.39;68.76
77153;BME280;66124;51.146;17.072;2023-02-23T10:03:38;100039.38;;;7.41;68.54
77153;BME280;66124;51.146;17.072;2023-02-23T10:06:13;100033.60;;;7.43;68.34
77153;BME280;66124;51.146;17.072;2023-02-23T10:08:51;100036.66;;;7.45;68.26
77153;BME280;66124;51.146;17.072;2023-02-23T10:11:33;100033.58;;;7.51;68.16
77153;BME280;66124;51.146;17.072;2023-02-23T10:14:21;100031.54;;;7.62;68.37
77153;BME280;66124;51.146;17.072;2023-02-23T10:17:04;100027.83;;;7.68;67.83
77153;BME280;66124;51.146;17.072;2023-02-23T10:19:43;100030.91;;;7.69;67.84
77153;BME280;66124;51.146;17.072;2023-02-23T10:22:14;100027.30;;;7.75;67.96
77153;BME280;66124;51.146;17.072;2023-02-23T10:24:46;100029.91;;;7.84;67.74
77153;BME280;66124;51.146;17.072;2023-02-23T10:27:19;100022.90;;;7.93;67.60
77153;BME280;66124;51.146;17.072;2023-02-23T10:29:50;100019.02;;;8.04;67.32
77153;BME280;66124;51.146;17.072;2023-02-23T10:32:37;100016.30;;;8.13;67.13
77153;BME280;66124;51.146;17.072;2023-02-23T10:35:12;100014.86;;;8.21;67.05
77153;BME280;66124;51.146;17.072;2023-02-23T10:37:42;100011.15;;;8.29;66.86
77153;BME280;66124;51.146;17.072;2023-02-23T10:40:17;100009.99;;;8.40;66.47
77153;BME280;66124;51.146;17.072;2023-02-23T10:42:47;100008.74;;;8.46;66.03
77153;BME280;66124;51.146;17.072;2023-02-23T10:45:19;100006.19;;;8.53;65.86
77153;BME280;66124;51.146;17.072;2023-02-23T10:47:47;100004.87;;;8.60;65.75
77153;BME280;66124;51.146;17.072;2023-02-23T10:53:21;99998.17;;;8.88;65.66
77153;BME280;66124;51.146;17.072;2023-02-23T10:56:01;99998.10;;;9.01;65.12
77153;BME280;66124;51.146;17.072;2023-02-23T10:58:32;99991.38;;;9.17;65.00
77153;BME280;66124;51.146;17.072;2023-02-23T11:01:08;99990.39;;;9.32;64.69
77153;BME280;66124;51.146;17.072;2023-02-23T11:03:41;99982.35;;;9.47;64.37
77153;BME280;66124;51.146;17.072;2023-02-23T11:06:29;99979.42;;;9.60;63.97
77153;BME280;66124;51.146;17.072;2023-02-23T11:08:59;99973.83;;;9.69;63.79
77153;BME280;66124;51.146;17.072;2023-02-23T11:11:56;99966.92;;;9.76;63.28
77153;BME280;66124;51.146;17.072;2023-02-23T11:14:27;99967.71;;;9.89;63.78
77153;BME280;66124;51.146;17.072;2023-02-23T11:16:58;99967.27;;;10.09;63.20
77153;BME280;66124;51.146;17.072;2023-02-23T11:19:32;99958.02;;;10.25;62.79
77153;BME280;66124;51.146;17.072;2023-02-23T11:22:03;99958.98;;;10.41;62.65
77153;BME280;66124;51.146;17.072;2023-02-23T11:24:36;99957.85;;;10.62;62.21
77153;BME280;66124;51.146;17.072;2023-02-23T11:27:19;99954.90;;;10.70;61.76
77153;BME280;66124;51.146;17.072;2023-02-23T11:29:50;99955.05;;;10.81;61.77
77153;BME280;66124;51.146;17.072;2023-02-23T11:32:22;99950.73;;;10.91;61.03
77153;BME280;66124;51.146;17.072;2023-02-23T11:35:13;99952.46;;;10.98;60.80
77153;BME280;66124;51.146;17.072;2023-02-23T11:37:43;99946.82;;;11.10;60.50
77153;BME280;66124;51.146;17.072;2023-02-23T11:40:21;99943.05;;;11.20;60.06
77153;BME280;66124;51.146;17.072;2023-02-23T11:42:56;99937.73;;;11.29;60.05
77153;BME280;66124;51.146;17.072;2023-02-23T11:45:27;99940.28;;;11.34;59.54
77153;BME280;66124;51.146;17.072;2023-02-23T11:48:00;99928.68;;;11.21;59.23
77153;BME280;66124;51.146;17.072;2023-02-23T11:50:32;99930.60;;;11.13;59.51
77153;BME280;66124;51.146;17.072;2023-02-23T11:53:05;99927.21;;;11.05;59.65
77153;BME280;66124;51.146;17.072;2023-02-23T11:55:36;99923.73;;;11.02;59.36
77153;BME280;66124;51.146;17.072;2023-02-23T11:58:22;99921.90;;;10.98;59.30
77153;BME280;66124;51.146;17.072;2023-02-23T12:00:58;99922.77;;;10.99;59.60
77153;BME280;66124;51.146;17.072;2023-02-23T12:03:30;99921.18;;;11.00;59.47
77153;BME280;66124;51.146;17.072;2023-02-23T12:05:59;99915.68;;;10.97;59.66
77153;BME280;66124;51.146;17.072;2023-02-23T12:13:29;99910.89;;;10.92;59.76
77153;BME280;66124;51.146;17.072;2023-02-23T12:16:03;99910.48;;;10.99;59.60
77153;BME280;66124;51.146;17.072;2023-02-23T12:18:44;99908.16;;;11.09;59.53
77153;BME280;66124;51.146;17.072;2023-02-23T12:21:26;99904.77;;;11.17;59.28
77153;BME280;66124;51.146;17.072;2023-02-23T12:24:05;99898.71;;;11.26;59.37
77153;BME280;66124;51.146;17.072;2023-02-23T12:26:43;99893.63;;;11.46;59.47
77153;BME280;66124;51.146;17.072;2023-02-23T12:29:20;99892.21;;;11.69;58.82
77153;BME280;66124;51.146;17.072;2023-02-23T12:31:53;99890.31;;;11.76;58.66
77153;BME280;66124;51.146;17.072;2023-02-23T12:34:28;99889.69;;;11.74;58.50
77153;BME280;66124;51.146;17.072;2023-02-23T12:37:02;99884.75;;;11.69;58.29
77153;BME280;66124;51.146;17.072;2023-02-23T12:39:37;99884.25;;;11.66;58.79
77153;BME280;66124;51.146;17.072;2023-02-23T12:42:13;99878.29;;;11.69;59.06
77153;BME280;66124;51.146;17.072;2023-02-23T12:44:45;99878.36;;;11.76;58.64
77153;BME280;66124;51.146;17.072;2023-02-23T12:47:23;99874.88;;;11.84;58.60
77153;BME280;66124;51.146;17.072;2023-02-23T12:49:55;99872.85;;;11.89;58.89
77153;BME280;66124;51.146;17.072;2023-02-23T12:52:30;99863.44;;;11.91;58.63
77153;BME280;66124;51.146;17.072;2023-02-23T12:55:00;99870.09;;;12.08;58.44
77153;BME280;66124;51.146;17.072;2023-02-23T12:57:36;99867.86;;;12.10;58.28
77153;BME280;66124;51.146;17.072;2023-02-23T13:00:28;99862.24;;;12.10;58.22
77153;BME280;66124;51.146;17.072;2023-02-23T13:03:11;99864.10;;;12.14;58.39
77153;BME280;66124;51.146;17.072;2023-02-23T13:05:49;99859.30;;;12.15;58.13
77153;BME280;66124;51.146;17.072;2023-02-23T13:08:31;99844.11;;;12.10;58.09
77153;BME280;66124;51.146;17.072;2023-02-23T13:11:13;99855.55;;;12.24;58.40
77153;BME280;66124;51.146;17.072;2023-02-23T13:13:51;99853.08;;;12.43;58.57
77153;BME280;66124;51.146;17.072;2023-02-23T13:16:29;99850.61;;;12.74;58.13
77153;BME280;66124;51.146;17.072;2023-02-23T13:19:08;99847.14;;;13.01;57.76
77153;BME280;66124;51.146;17.072;2023-02-23T13:21:44;99839.52;;;13.23;57.62
77153;BME280;66124;51.146;17.072;2023-02-23T13:24:16;99838.63;;;13.46;57.18
77153;BME280;66124;51.146;17.072;2023-02-23T13:32:25;99833.86;;;13.62;56.48
77153;BME280;66124;51.146;17.072;2023-02-23T13:34:57;99829.36;;;13.68;56.22
77153;BME280;66124;51.146;17.072;2023-02-23T13:37:30;99833.08;;;13.78;56.34
77153;BME280;66124;51.146;17.072;2023-02-23T13:40:05;99829.56;;;13.93;56.07
77153;BME280;66124;51.146;17.072;2023-02-23T13:42:54;99828.52;;;14.03;55.64
77153;BME280;66124;51.146;17.072;2023-02-23T13:45:54;99824.98;;;14.11;55.66
77153;BME280;66124;51.146;17.072;2023-02-23T13:48:34;99825.30;;;14.39;55.72
77153;BME280;66124;51.146;17.072;2023-02-23T13:51:16;99824.34;;;14.77;55.43
77153;BME280;66124;51.146;17.072;2023-02-23T13:53:59;99816.55;;;15.22;54.95
77153;BME280;66124;51.146;17.072;2023-02-23T13:56:30;99822.46;;;15.79;54.40
77153;BME280;66124;51.146;17.072;2023-02-23T13:59:03;99822.89;;;16.29;53.50
77153;BME280;66124;51.146;17.072;2023-02-23T14:01:37;99817.26;;;16.52;52.35
77153;BME280;66124;51.146;17.072;2023-02-23T14:04:12;99817.76;;;16.63;51.90
77153;BME280;66124;51.146;17.072;2023-02-23T14:06:52;99815.42;;;16.92;51.52
77153;BME280;66124;51.146;17.072;2023-02-23T14:09:25;99810.77;;;17.25;50.94
77153;BME280;66124;51.146;17.072;2023-02-23T14:12:11;99811.58;;;17.33;50.37
77153;BME280;66124;51.146;17.072;2023-02-23T14:14:45;99806.92;;;17.36;50.49
77153;BME280;66124;51.146;17.072;2023-02-23T14:17:56;99805.21;;;17.34;50.10
77153;BME280;66124;51.146;17.072;2023-02-23T14:20:41;99801.02;;;17.18;50.15
77153;BME280;66124;51.146;17.072;2023-02-23T14:23:26;99798.77;;;17.00;50.22
77153;BME280;66124;51.146;17.072;2023-02-23T14:29:20;99802.12;;;16.48;49.81